Aviation Digital Data Service (ADDS)

Output produced by METARs form (1141 UTC 27 May 2017)
found at http://www.aviationweather.gov/adds/metars/
 
LIMA 271050Z 08003KT 9000 NSC 25/13 Q1021
LIMG 271050Z 08009KT CAVOK 26/11 Q1020
LIEA 271120Z 29008KT 240V330 9999 FEW020 26/17 Q1019
TAF LIEA 271100Z 2712/2812 28010KT CAVOK 
     BECMG 2718/2720 05006KT 
     BECMG 2808/2810 03014KT
       
LIBA 271055Z 01016KT 9999 FEW040 24/07 Q1017 RMK FEW VIS MIN 9999 WIND THR11 35011KT WIND THR29 /////KT BLU
TAF LIBA 270800Z 2709/2718 33015KT 9999 FEW025 
     PROB40 
     TEMPO 2709/2717 33017G27KT SCT025
       
LIPA 271055Z 21004KT 9999 FEW060 26/17 Q1020 RMK FEW VIS MIN 9999 WIND THR05 VRB03KT WIND THR23 00000KT A3013 BLU
TAF LIPA 271100Z 2712/2721 21005KT 9999 FEW050
       
LIME 271120Z 20005KT 120V270 CAVOK 26/09 Q1020 NOSIG
TAF LIME 271100Z 2712/2812 13005KT 9999 SCT050
       
LIPE 271120Z 12008KT 070V180 CAVOK 27/11 Q1020
TAF LIPE 271100Z 2712/2812 09010KT 9999 FEW030 
     BECMG 2715/2718 VRB06KT 
     BECMG 2809/2812 09010KT
       
LIPB 271050Z 15006KT 080V200 CAVOK 27/11 Q1019
TAF LIPB 271100Z 2712/2812 VRB06KT 9999 FEW050
       
LIRN 271120Z 03010KT 9999 FEW040 26/08 Q1018 NOSIG
TAF LIRN 271100Z 2712/2812 28010KT CAVOK 
     BECMG 2717/2719 VRB05KT 
     BECMG 2808/2810 22010KT
       
LIBR 271045Z 33026G37KT CAVOK 21/17 Q1016 NOSIG RMK FEW FEW200 VIS MIN 9999 WIND THR13 /////KT WIND THR31 33024KT BLU
TAF LIBR 271100Z 2712/2812 34025G35KT CAVOK 
     BECMG 2717/2718 34015KT 
     BECMG 2809/2810 34020G30KT
       
LICC 271120Z 10011KT 9999 FEW030 SCT080 25/11 Q1017
TAF LICC 271100Z 2712/2812 09012KT 9999 FEW030 
     BECMG 2718/2720 VRB05KT 
     BECMG 2808/2810 09012KT
       
LIPC 271055Z 09007KT CAVOK 24/14 Q1020 RMK FEW FEW200 VIS MIN 9999 WIND THR11 //////KT WIND THR29 08006KT BLU
TAF LIPC 271100Z 2712/2721 11012KT CAVOK 
     BECMG 2718/2720 VRB03KT
       
LIRA 271120Z VRB04KT CAVOK 26/06 Q1018
TAF LIRA 271100Z 2712/2812 24010KT CAVOK 
     BECMG 2717/2719 VRB05KT 
     BECMG 2808/2810 24010KT
       
LIED 271055Z 15012KT 9999 FEW025 30/12 Q1018 RMK FEW VIS MIN 9999 WIND THR35 14012KT WIND THR17 /////KT BLU
TAF LIED 270500Z 2706/2715 VRB03KT CAVOK 
     BECMG 2711/2712 17008KT
       
LIEE 271120Z 16009KT CAVOK 25/09 Q1019
TAF LIEE 271100Z 2712/2812 15012KT CAVOK 
     BECMG 2718/2720 VRB05KT 
     BECMG 2808/2810 15012KT
       
LIPY 271050Z 34007KT 300V020 CAVOK 23/15 Q1020
TAF LIPY 271100Z 2712/2812 02010KT 9999 FEW035 
     BECMG 2716/2718 VRB06KT 
     BECMG 2808/2811 02010KT
       
LIRF 271120Z 23010KT CAVOK 26/08 Q1018 NOSIG
TAF LIRF 271100Z 2712/2818 27012KT CAVOK 
     BECMG 2718/2720 04007KT 
     BECMG 2808/2810 25012KT
       
LIMJ 271120Z 21004KT 160V250 CAVOK 24/14 Q1020
TAF LIMJ 271100Z 2712/2812 20005KT CAVOK
       
LIPL 271055Z /////KT CAVOK 27/10 Q1021 RMK SKC VIS MIN 9999 WIND THR31 09004KT BLU
TAF LIPL 271100Z 2712/2721 07005KT CAVOK
       
LIBF 271050Z 34017KT 9999 FEW025 24/09 Q1018
LIBV 271055Z 33014KT 9999 SCT040 23/07 Q1016 RMK SCT VIS MIN 9999 WIND THR32 36013KT WIND THR14 35016KT BLU
TAF LIBV 271100Z 2712/2721 33015KT CAVOK 
     TEMPO 2712/2716 36015G25KT 9999 SCT040
       
LIRM 271055Z 28007G17KT 220V010 9999 FEW040 27/11 Q1017 RMK FEW VIS MIN 9999 WIND THR06 27007KT BLU
TAF LIRM 271100Z 2712/2721 27011KT 9999 FEW033 
     TEMPO 2712/2716 29012G22KT FEW022TCU
       
LIRS 271055Z 16005KT 9999 FEW030 28/10 Q1019 RMK SCT VIS MIN 9999 WIND THR03 25010KT WIND THR021 01006KT BLU
TAF LIRS 271100Z 2712/2721 07012KT 9999 FEW030
       
LIBG 271050Z 36016KT CAVOK 26/07 Q1015
TAF LIBG 271100Z 2712/2721 34018KT 9999 FEW040
       
LIPS 271055Z 23007KT CAVOK 27/13 Q1019 RMK SKC VIS MIN 9999 WIND THR26 25004KT WIND THR08 25004KT BLU
TAF LIPS 271100Z 2712/2721 23007KT CAVOK
       
LICA 271050Z 26015KT 9999 FEW030 22/15 Q1017
TAF LICA 271100Z 2712/2812 27012KT 9999 SCT020 
     BECMG 2718/2720 VRB05KT 
     BECMG 2808/2810 27012KT
       
LICD 271050Z 11007KT 9999 FEW015 23/18 Q1019
TAF LICD 271100Z 2712/2812 10010KT 9999 FEW030 
     BECMG 2714/2716 VRB06KT
       
LIBN 271055Z 34014KT 9999 FEW030 24/09 Q1015 RMK FEW VIS MIN 9999 WIND THR14 35014KT WIND THR32 34015KT BLU
LIMZ 271050Z 04004KT 010V090 CAVOK 25/15 Q1021
TAF LIMZ 271100Z 2712/2812 06005KT 9999 SCT040
       
LIML 271120Z VRB03KT CAVOK 27/08 Q1020 NOSIG
TAF LIML 271100Z 2712/2812 09006KT CAVOK
       
LIMC 271120Z 21005KT 150V280 CAVOK 26/10 Q1021 NOSIG
TAF LIMC 271100Z 2712/2818 VRB05KT CAVOK
       
LIPO 271050Z 14003KT CAVOK 26/08 Q1020
TAF LIPO 271100Z 2712/2812 12005KT 9999 SCT050
       
LIEO 271120Z 05010KT CAVOK 26/13 Q1020
TAF LIEO 271100Z 2712/2812 04012KT CAVOK 
     BECMG 2718/2720 VRB05KT 
     BECMG 2808/2810 04012KT
       
LIPU 270600Z VRB03KT CAVOK 20/13 Q1020
LICJ 271120Z 36009KT CAVOK 22/16 Q1019
TAF LICJ 271100Z 2712/2812 03014KT CAVOK 
     BECMG 2718/2720 VRB05KT 
     BECMG 2808/2810 03014KT
       
LIBD 271120Z 35013KT CAVOK 22/12 Q1017
TAF LIBD 271100Z 2712/2812 3314KT 9999 FEW030
       
LICG 271055Z 03009KT 9999 FEW015 22/14 Q1018 RMK FEW VIS MIN 9999 WIND THR08 /////KT WIND THR21 03010KT BLU
TAF LICG 271100Z 2712/2721 34010KT CAVOK
       
LIMP 271050Z VRB03KT CAVOK 27/12 Q1020
TAF LIMP 271100Z 2712/2812 08006KT CAVOK
       
LIRQ 271120Z VRB04KT CAVOK 28/09 Q1019
TAF LIRQ 271100Z 2712/2812 VRB06KT CAVOK
       
LIRZ 271050Z 01011KT CAVOK 25/08 Q1020
TAF LIRZ 271100Z 2712/2812 04008KT CAVOK
       
LIBP 271050Z 01010KT 330V040 CAVOK 24/12 Q1020
TAF LIBP 271100Z 2712/2812 01012KT 9999 FEW040 
     BECMG 2717/2719 31008KT 
     BECMG 2808/2811 01012KT
       
LIRP 271115Z 11007KT CAVOK 27/07 Q1019 NOSIG
TAF LIRP 271100Z 2712/2812 30015KT CAVOK 
     BECMG 2718/2720 09005KT 
     BECMG 2810/2812 30015KT
       
LIRI 270950Z 01012KT 9999 FEW030 25/08 Q1017
LIRE 271055Z 21009KT CAVOK 24/02 Q1018 RMK SKC VIS MIN 9999 WIND THR13 21007KT WIND THR31 /////KT BLU
TAF LIRE 271100Z 2712/2721 23012KT 9999 FEW030 
     TEMPO 2712/2716 27012G23KT FEW025TCU
       
LICR 271050Z 34013KT 9999 FEW030 25/07 Q1017
TAF LICR 271100Z 2712/2812 01012KT 9999 SCT030 
     BECMG 2718/2720 VRB04KT 
     BECMG 2808/2810 01012KT
       
LIPR 271115Z 02004KT CAVOK 23/16 Q1020
TAF LIPR 271100Z 2712/2721 07012KT CAVOK 
     BECMG 2718/2720 VRB03KT
       
TAF LIPI 270200Z 2703/2712 VRB05KT 9999 FEW050
       
LIPQ 271120Z VRB05KT 9999 FEW030 27/16 Q1019
TAF LIPQ 271100Z 2712/2812 VRB06KT 9999 FEW050
       
LICZ 271055Z 16005KT 9999 SCT030 30/04 Q1017 RMK SCT VIS MIN 9999 WIND THR28 /////KT WIND THR10 06005KT A3004 BLU
TAF LICZ 271100Z 2712/2721 09014KT 9999 SCT025
       
LIMF 271120Z VRB03KT CAVOK 24/14 Q1021
TAF LIMF 271100Z 2712/2812 06005KT CAVOK
       
LICT 271055Z 34014KT 9999 FEW025 23/16 Q1018 RMK FEW VIS MIN 9999 WIND THR13 33013KT BLU
TAF LICT 271100Z 2712/2721 34015KT CAVOK
       
LIPH 271120Z 24005KT 150V300 CAVOK 27/11 Q1020
TAF LIPH 271100Z 2712/2812 VRB06KT 9999 FEW050
       
LIRU 271050Z VRB03KT CAVOK 27/05 Q1018
TAF LIRU 271100Z 2712/2721 VRB05KT CAVOK
       
LIPZ 271120Z 15008KT 120V180 CAVOK 25/14 Q1020 NOSIG
TAF LIPZ 271100Z 2712/2818 16010KT 9999 FEW050 
     BECMG 2716/2719 VRB06KT 
     BECMG 2808/2811 16010KT 
     BECMG 2816/2818 VRB06KT
       
LIPX 271120Z 25006KT 210V290 CAVOK 27/11 Q1020
TAF LIPX 271100Z 2712/2721 22006KT CAVOK
       
LIRV 271055Z 05010KT CAVOK 25/09 Q1019 RMK SKC MON E SE LIB NC VIS MIN 9999 BLU
TAF LIRV 271100Z 2712/2721 027012KT 9999 FEW030 
     TEMPO 2712/2716 05013G26KT FEW022TCU